SWA1291 KBWI-KCHS
Flight info
| Callsign | SWA1291 |
|---|---|
| Flight time | 1h 8m |
| Altitude | 38000 |
| Route | CONLE5 SCOOB DFENC Q109 JOHAR AMYLU AMYLU3 |
| Aircraft | B737/M-SDE2E3GIJ4RWZ/LB1D1 |
Departure
| Time | 2026-04-27 21:50 |
|---|---|
| Airport | Baltimore/Washington International Thurgood Marshall Airport (KBWI) |
Arrival
| Time | 2026-04-27 22:58 |
|---|---|
| Airport | Charleston International Airport (KCHS) |
| Time | Latitude | Longitude | Altitude | Speed | Heading |
|---|---|---|---|---|---|
| 2026-04-27 21:14 | 39.17734 | -76.66945 | 154 ft | 0 kts | 234° |
| 2026-04-27 21:39 | 39.17736 | -76.66942 | 155 ft | 3 kts | 234° |
| 2026-04-27 21:39 | 39.17752 | -76.66915 | 155 ft | 4 kts | 226° |
| 2026-04-27 21:40 | 39.17772 | -76.66894 | 155 ft | 4 kts | 194° |
| 2026-04-27 21:40 | 39.17788 | -76.66895 | 155 ft | 0 kts | 144° |
| 2026-04-27 21:43 | 39.17786 | -76.66894 | 155 ft | 1 kts | 144° |
| 2026-04-27 21:43 | 39.17774 | -76.66882 | 155 ft | 3 kts | 144° |
| 2026-04-27 21:44 | 39.17747 | -76.66857 | 155 ft | 6 kts | 144° |
| 2026-04-27 21:44 | 39.17708 | -76.66820 | 155 ft | 8 kts | 144° |
| 2026-04-27 21:44 | 39.17655 | -76.66778 | 155 ft | 9 kts | 164° |
| 2026-04-27 21:44 | 39.17592 | -76.66778 | 154 ft | 9 kts | 182° |
| 2026-04-27 21:45 | 39.17533 | -76.66796 | 154 ft | 9 kts | 218° |
| 2026-04-27 21:45 | 39.17490 | -76.66849 | 154 ft | 9 kts | 214° |
| 2026-04-27 21:45 | 39.17468 | -76.66914 | 153 ft | 9 kts | 271° |
| 2026-04-27 21:45 | 39.17482 | -76.66995 | 152 ft | 10 kts | 291° |
| 2026-04-27 21:46 | 39.17517 | -76.67071 | 151 ft | 10 kts | 310° |
| 2026-04-27 21:46 | 39.17570 | -76.67130 | 150 ft | 10 kts | 324° |
| 2026-04-27 21:46 | 39.17629 | -76.67184 | 150 ft | 11 kts | 324° |
| 2026-04-27 21:46 | 39.17702 | -76.67251 | 149 ft | 14 kts | 324° |
| 2026-04-27 21:47 | 39.17792 | -76.67333 | 149 ft | 17 kts | 323° |
| 2026-04-27 21:47 | 39.17897 | -76.67430 | 148 ft | 20 kts | 323° |
| 2026-04-27 21:47 | 39.18014 | -76.67541 | 147 ft | 21 kts | 324° |
| 2026-04-27 21:47 | 39.18131 | -76.67647 | 146 ft | 20 kts | 322° |
| 2026-04-27 21:48 | 39.18243 | -76.67753 | 145 ft | 20 kts | 325° |
| 2026-04-27 21:48 | 39.18351 | -76.67853 | 145 ft | 19 kts | 324° |
| 2026-04-27 21:48 | 39.18455 | -76.67947 | 147 ft | 18 kts | 324° |
| 2026-04-27 21:48 | 39.18538 | -76.68026 | 147 ft | 10 kts | 324° |
| 2026-04-27 21:49 | 39.18573 | -76.68090 | 147 ft | 9 kts | 278° |
| 2026-04-27 21:49 | 39.18545 | -76.68163 | 145 ft | 9 kts | 233° |
| 2026-04-27 21:49 | 39.18491 | -76.68161 | 144 ft | 10 kts | 138° |
| 2026-04-27 21:49 | 39.18364 | -76.68041 | 145 ft | 53 kts | 144° |
| 2026-04-27 21:50 | 39.17853 | -76.67567 | 144 ft | 124 kts | 144° |
| 2026-04-27 21:50 | 39.17024 | -76.66809 | 382 ft | 157 kts | 143° |
| 2026-04-27 21:50 | 39.16164 | -76.66005 | 1319 ft | 149 kts | 143° |
| 2026-04-27 21:50 | 39.15311 | -76.65223 | 2081 ft | 161 kts | 143° |
| 2026-04-27 21:51 | 39.14301 | -76.64282 | 2495 ft | 197 kts | 142° |
| 2026-04-27 21:51 | 39.13084 | -76.63151 | 2799 ft | 234 kts | 143° |
| 2026-04-27 21:51 | 39.11679 | -76.61858 | 3419 ft | 255 kts | 143° |
| 2026-04-27 21:51 | 39.10282 | -76.60425 | 4366 ft | 259 kts | 135° |
| 2026-04-27 21:52 | 39.09018 | -76.58753 | 5279 ft | 263 kts | 131° |
| 2026-04-27 21:52 | 39.07767 | -76.57011 | 6214 ft | 266 kts | 131° |
| 2026-04-27 21:52 | 39.06493 | -76.55250 | 7142 ft | 271 kts | 132° |
| 2026-04-27 21:52 | 39.05179 | -76.53461 | 7976 ft | 281 kts | 132° |
| 2026-04-27 21:53 | 39.03805 | -76.51613 | 8844 ft | 290 kts | 133° |
| 2026-04-27 21:53 | 39.02388 | -76.49720 | 9763 ft | 299 kts | 133° |
| 2026-04-27 21:53 | 39.00906 | -76.47775 | 10504 ft | 314 kts | 137° |
| 2026-04-27 21:53 | 38.98928 | -76.46309 | 10713 ft | 347 kts | 165° |
| 2026-04-27 21:54 | 38.96481 | -76.46201 | 11277 ft | 359 kts | 194° |
| 2026-04-27 21:54 | 38.94067 | -76.47089 | 12129 ft | 363 kts | 200° |
| 2026-04-27 21:54 | 38.91646 | -76.48096 | 13004 ft | 369 kts | 200° |
| 2026-04-27 21:54 | 38.89178 | -76.49083 | 13684 ft | 373 kts | 199° |
| 2026-04-27 21:55 | 38.86681 | -76.50032 | 14001 ft | 376 kts | 199° |
| 2026-04-27 21:55 | 38.84171 | -76.50973 | 14001 ft | 376 kts | 200° |
| 2026-04-27 21:55 | 38.81706 | -76.52091 | 14017 ft | 375 kts | 204° |
| 2026-04-27 21:55 | 38.79276 | -76.53321 | 14017 ft | 375 kts | 204° |
| 2026-04-27 21:56 | 38.76863 | -76.54561 | 14203 ft | 375 kts | 204° |
| 2026-04-27 21:56 | 38.71985 | -76.57001 | 14669 ft | 377 kts | 204° |
| 2026-04-27 21:56 | 38.69529 | -76.58207 | 15104 ft | 380 kts | 204° |
| 2026-04-27 21:57 | 38.67042 | -76.59397 | 15530 ft | 382 kts | 202° |
| 2026-04-27 21:57 | 38.64537 | -76.60557 | 15976 ft | 384 kts | 202° |
| 2026-04-27 21:57 | 38.62013 | -76.61713 | 16417 ft | 386 kts | 202° |
| 2026-04-27 21:57 | 38.59481 | -76.62873 | 16872 ft | 387 kts | 202° |
| 2026-04-27 21:58 | 38.56931 | -76.64044 | 17367 ft | 394 kts | 202° |
| 2026-04-27 21:58 | 38.54334 | -76.65241 | 18205 ft | 398 kts | 202° |
| 2026-04-27 21:58 | 38.51723 | -76.66444 | 19067 ft | 400 kts | 202° |
| 2026-04-27 21:58 | 38.49092 | -76.67657 | 19852 ft | 403 kts | 202° |
| 2026-04-27 21:59 | 38.46437 | -76.68881 | 20577 ft | 408 kts | 203° |
| 2026-04-27 21:59 | 38.43750 | -76.70118 | 21298 ft | 413 kts | 203° |
| 2026-04-27 21:59 | 38.40968 | -76.71142 | 21974 ft | 422 kts | 191° |
| 2026-04-27 21:59 | 38.38002 | -76.71095 | 22668 ft | 431 kts | 175° |
| 2026-04-27 22:00 | 38.35017 | -76.70599 | 23382 ft | 436 kts | 174° |
| 2026-04-27 22:00 | 38.31994 | -76.70053 | 23983 ft | 441 kts | 174° |
| 2026-04-27 22:00 | 38.28938 | -76.69506 | 24498 ft | 447 kts | 174° |
| 2026-04-27 22:00 | 38.25840 | -76.68974 | 25014 ft | 451 kts | 175° |
| 2026-04-27 22:01 | 38.22748 | -76.68463 | 25514 ft | 456 kts | 175° |
| 2026-04-27 22:01 | 38.19589 | -76.67953 | 26015 ft | 461 kts | 176° |
| 2026-04-27 22:01 | 38.16391 | -76.67442 | 26492 ft | 465 kts | 176° |
| 2026-04-27 22:01 | 38.13163 | -76.66925 | 26957 ft | 470 kts | 176° |
| 2026-04-27 22:02 | 38.09901 | -76.66407 | 27419 ft | 474 kts | 177° |
| 2026-04-27 22:02 | 38.06603 | -76.66033 | 27877 ft | 477 kts | 180° |
| 2026-04-27 22:02 | 38.03275 | -76.65801 | 28354 ft | 481 kts | 181° |
| 2026-04-27 22:02 | 37.99925 | -76.65625 | 28819 ft | 484 kts | 182° |
| 2026-04-27 22:03 | 37.96546 | -76.65452 | 29266 ft | 488 kts | 182° |
| 2026-04-27 22:03 | 37.93143 | -76.65263 | 29691 ft | 492 kts | 182° |
| 2026-04-27 22:03 | 37.89707 | -76.65052 | 30103 ft | 496 kts | 182° |
| 2026-04-27 22:03 | 37.86252 | -76.64827 | 30515 ft | 499 kts | 181° |
| 2026-04-27 22:04 | 37.82788 | -76.64591 | 30995 ft | 498 kts | 181° |
| 2026-04-27 22:04 | 37.79324 | -76.64353 | 31481 ft | 498 kts | 181° |
| 2026-04-27 22:04 | 37.75861 | -76.64116 | 31901 ft | 499 kts | 180° |
| 2026-04-27 22:04 | 37.72387 | -76.63882 | 32320 ft | 501 kts | 180° |
| 2026-04-27 22:05 | 37.68906 | -76.63649 | 32753 ft | 501 kts | 180° |
| 2026-04-27 22:05 | 37.65424 | -76.63416 | 33178 ft | 502 kts | 180° |
| 2026-04-27 22:05 | 37.61936 | -76.63183 | 33607 ft | 502 kts | 179° |
| 2026-04-27 22:05 | 37.58458 | -76.63103 | 34068 ft | 498 kts | 188° |
| 2026-04-27 22:06 | 37.55055 | -76.63812 | 34325 ft | 497 kts | 195° |
| 2026-04-27 22:06 | 37.48273 | -76.65692 | 34287 ft | 497 kts | 197° |
| 2026-04-27 22:07 | 37.41591 | -76.67575 | 34280 ft | 490 kts | 196° |
| 2026-04-27 22:07 | 37.34911 | -76.69372 | 34285 ft | 492 kts | 196° |
| 2026-04-27 22:08 | 37.28205 | -76.71127 | 34268 ft | 493 kts | 195° |
| 2026-04-27 22:08 | 37.22614 | -76.72578 | 34275 ft | 494 kts | 195° |
| 2026-04-27 22:09 | 37.15885 | -76.74324 | 34266 ft | 494 kts | 195° |
| 2026-04-27 22:09 | 37.09199 | -76.76056 | 34296 ft | 489 kts | 195° |
| 2026-04-27 22:10 | 37.01443 | -76.78068 | 34296 ft | 490 kts | 195° |
| 2026-04-27 22:10 | 36.95852 | -76.79515 | 34289 ft | 490 kts | 195° |
| 2026-04-27 22:11 | 36.89170 | -76.81241 | 34284 ft | 490 kts | 195° |
| 2026-04-27 22:11 | 36.82485 | -76.82965 | 34289 ft | 491 kts | 195° |
| 2026-04-27 22:12 | 36.75806 | -76.84683 | 34286 ft | 490 kts | 195° |
| 2026-04-27 22:12 | 36.69173 | -76.86387 | 34288 ft | 489 kts | 195° |
| 2026-04-27 22:13 | 36.62517 | -76.88094 | 34282 ft | 488 kts | 195° |
| 2026-04-27 22:13 | 36.55879 | -76.89793 | 34287 ft | 486 kts | 195° |
| 2026-04-27 22:14 | 36.49272 | -76.91481 | 34284 ft | 484 kts | 195° |
| 2026-04-27 22:14 | 36.42685 | -76.93162 | 34279 ft | 482 kts | 195° |
| 2026-04-27 22:15 | 36.36119 | -76.94835 | 34271 ft | 481 kts | 195° |
| 2026-04-27 22:15 | 36.29568 | -76.96500 | 34273 ft | 480 kts | 195° |
| 2026-04-27 22:16 | 36.23024 | -76.98162 | 34267 ft | 480 kts | 195° |
| 2026-04-27 22:16 | 36.16484 | -76.99819 | 34275 ft | 480 kts | 195° |
| 2026-04-27 22:17 | 36.09945 | -77.01474 | 34271 ft | 479 kts | 195° |
| 2026-04-27 22:17 | 36.03412 | -77.03124 | 34267 ft | 479 kts | 195° |
| 2026-04-27 22:18 | 35.96880 | -77.04772 | 34258 ft | 479 kts | 196° |
| 2026-04-27 22:18 | 35.90732 | -77.07595 | 34269 ft | 467 kts | 214° |
| 2026-04-27 22:19 | 35.85517 | -77.12193 | 34263 ft | 459 kts | 224° |
| 2026-04-27 22:19 | 35.80571 | -77.17164 | 34265 ft | 459 kts | 224° |
| 2026-04-27 22:20 | 35.75608 | -77.22114 | 34254 ft | 459 kts | 224° |
| 2026-04-27 22:20 | 35.70624 | -77.27024 | 34248 ft | 459 kts | 224° |
| 2026-04-27 22:21 | 35.65635 | -77.31908 | 34234 ft | 458 kts | 224° |
| 2026-04-27 22:21 | 35.60652 | -77.36777 | 34244 ft | 457 kts | 224° |
| 2026-04-27 22:22 | 35.55678 | -77.41631 | 34238 ft | 456 kts | 224° |
| 2026-04-27 22:22 | 35.50710 | -77.46472 | 34246 ft | 455 kts | 224° |
| 2026-04-27 22:23 | 35.45750 | -77.51299 | 34241 ft | 454 kts | 223° |
| 2026-04-27 22:23 | 35.40802 | -77.56105 | 34245 ft | 453 kts | 223° |
| 2026-04-27 22:24 | 35.35895 | -77.60864 | 34239 ft | 453 kts | 223° |
| 2026-04-27 22:24 | 35.30924 | -77.65678 | 34244 ft | 452 kts | 223° |
| 2026-04-27 22:25 | 35.26029 | -77.70411 | 34237 ft | 451 kts | 223° |
| 2026-04-27 22:25 | 35.21101 | -77.75168 | 34253 ft | 451 kts | 223° |
| 2026-04-27 22:26 | 35.16176 | -77.79915 | 34242 ft | 451 kts | 223° |
| 2026-04-27 22:26 | 35.11245 | -77.84660 | 34248 ft | 451 kts | 223° |
| 2026-04-27 22:27 | 35.06317 | -77.89395 | 34234 ft | 451 kts | 223° |
| 2026-04-27 22:27 | 35.01386 | -77.94125 | 34248 ft | 451 kts | 223° |
| 2026-04-27 22:28 | 34.96458 | -77.98845 | 34235 ft | 451 kts | 223° |
| 2026-04-27 22:28 | 34.91527 | -78.03561 | 34245 ft | 451 kts | 223° |
| 2026-04-27 22:29 | 34.86594 | -78.08273 | 34235 ft | 451 kts | 223° |
| 2026-04-27 22:29 | 34.81659 | -78.12984 | 34239 ft | 450 kts | 223° |
| 2026-04-27 22:30 | 34.76731 | -78.17696 | 34227 ft | 450 kts | 223° |
| 2026-04-27 22:30 | 34.71807 | -78.22401 | 34236 ft | 450 kts | 223° |
| 2026-04-27 22:31 | 34.66881 | -78.27098 | 34224 ft | 449 kts | 223° |
| 2026-04-27 22:31 | 34.61966 | -78.31776 | 34242 ft | 449 kts | 223° |
| 2026-04-27 22:32 | 34.57083 | -78.36418 | 34235 ft | 449 kts | 223° |
| 2026-04-27 22:32 | 34.54621 | -78.38756 | 34130 ft | 452 kts | 223° |
| 2026-04-27 22:32 | 34.52107 | -78.41143 | 34003 ft | 453 kts | 223° |
| 2026-04-27 22:32 | 34.49661 | -78.43461 | 33866 ft | 451 kts | 223° |
| 2026-04-27 22:33 | 34.47158 | -78.45831 | 33734 ft | 450 kts | 223° |
| 2026-04-27 22:33 | 34.44724 | -78.48134 | 33597 ft | 450 kts | 223° |
| 2026-04-27 22:33 | 34.42259 | -78.50466 | 33471 ft | 450 kts | 223° |
| 2026-04-27 22:33 | 34.39795 | -78.52795 | 33338 ft | 449 kts | 223° |
| 2026-04-27 22:34 | 34.37330 | -78.55125 | 33208 ft | 449 kts | 223° |
| 2026-04-27 22:34 | 34.34867 | -78.57449 | 33076 ft | 449 kts | 223° |
| 2026-04-27 22:34 | 34.32429 | -78.59792 | 32953 ft | 447 kts | 226° |
| 2026-04-27 22:34 | 34.30167 | -78.62347 | 32814 ft | 444 kts | 229° |
| 2026-04-27 22:35 | 34.27977 | -78.64987 | 32629 ft | 445 kts | 230° |
| 2026-04-27 22:35 | 34.25807 | -78.67654 | 32446 ft | 445 kts | 230° |
| 2026-04-27 22:35 | 34.23634 | -78.70327 | 32278 ft | 445 kts | 230° |
| 2026-04-27 22:35 | 34.21455 | -78.72987 | 32100 ft | 446 kts | 230° |
| 2026-04-27 22:36 | 34.19267 | -78.75636 | 31917 ft | 446 kts | 230° |
| 2026-04-27 22:36 | 34.17070 | -78.78280 | 31748 ft | 446 kts | 230° |
| 2026-04-27 22:36 | 34.14870 | -78.80915 | 31579 ft | 445 kts | 229° |
| 2026-04-27 22:36 | 34.12671 | -78.83544 | 31403 ft | 445 kts | 229° |
| 2026-04-27 22:37 | 34.10471 | -78.86171 | 31228 ft | 444 kts | 229° |
| 2026-04-27 22:37 | 34.08278 | -78.88789 | 31053 ft | 443 kts | 229° |
| 2026-04-27 22:37 | 34.06069 | -78.91424 | 30825 ft | 449 kts | 229° |
| 2026-04-27 22:37 | 34.03840 | -78.94084 | 30575 ft | 452 kts | 229° |
| 2026-04-27 22:38 | 34.01615 | -78.96734 | 30336 ft | 447 kts | 229° |
| 2026-04-27 22:38 | 33.99401 | -78.99366 | 29655 ft | 446 kts | 229° |
| 2026-04-27 22:38 | 33.97208 | -79.01972 | 28999 ft | 440 kts | 229° |
| 2026-04-27 22:38 | 33.95042 | -79.04544 | 28341 ft | 434 kts | 229° |
| 2026-04-27 22:39 | 33.92907 | -79.07078 | 27675 ft | 429 kts | 229° |
| 2026-04-27 22:39 | 33.90791 | -79.09591 | 27013 ft | 425 kts | 229° |
| 2026-04-27 22:39 | 33.88693 | -79.12081 | 26370 ft | 422 kts | 229° |
| 2026-04-27 22:39 | 33.86610 | -79.14552 | 25724 ft | 419 kts | 229° |
| 2026-04-27 22:40 | 33.84538 | -79.17008 | 25085 ft | 417 kts | 229° |
| 2026-04-27 22:40 | 33.82475 | -79.19451 | 24442 ft | 417 kts | 228° |
| 2026-04-27 22:40 | 33.80377 | -79.21937 | 23765 ft | 428 kts | 228° |
| 2026-04-27 22:40 | 33.78180 | -79.24388 | 22997 ft | 434 kts | 221° |
| 2026-04-27 22:41 | 33.75684 | -79.26410 | 22430 ft | 431 kts | 215° |
| 2026-04-27 22:41 | 33.73128 | -79.28281 | 21857 ft | 429 kts | 214° |
| 2026-04-27 22:41 | 33.70572 | -79.30119 | 21300 ft | 427 kts | 214° |
| 2026-04-27 22:41 | 33.68037 | -79.31961 | 20745 ft | 425 kts | 214° |
| 2026-04-27 22:42 | 33.65528 | -79.33812 | 20199 ft | 423 kts | 215° |
| 2026-04-27 22:42 | 33.63069 | -79.35648 | 19669 ft | 421 kts | 215° |
| 2026-04-27 22:42 | 33.60595 | -79.37506 | 19134 ft | 419 kts | 215° |
| 2026-04-27 22:42 | 33.58130 | -79.39361 | 18590 ft | 418 kts | 215° |
| 2026-04-27 22:43 | 33.55674 | -79.41210 | 17973 ft | 416 kts | 215° |
| 2026-04-27 22:43 | 33.53228 | -79.43049 | 17311 ft | 413 kts | 214° |
| 2026-04-27 22:43 | 33.50811 | -79.44861 | 16689 ft | 403 kts | 214° |
| 2026-04-27 22:43 | 33.48490 | -79.46596 | 16136 ft | 384 kts | 214° |
| 2026-04-27 22:44 | 33.46278 | -79.48255 | 15651 ft | 367 kts | 215° |
| 2026-04-27 22:44 | 33.44155 | -79.49850 | 15165 ft | 353 kts | 215° |
| 2026-04-27 22:44 | 33.42109 | -79.51388 | 14721 ft | 341 kts | 215° |
| 2026-04-27 22:44 | 33.40135 | -79.52873 | 14290 ft | 329 kts | 215° |
| 2026-04-27 22:45 | 33.38225 | -79.54306 | 13844 ft | 319 kts | 215° |
| 2026-04-27 22:45 | 33.36373 | -79.55694 | 13403 ft | 310 kts | 215° |
| 2026-04-27 22:45 | 33.34560 | -79.57055 | 12989 ft | 306 kts | 215° |
| 2026-04-27 22:45 | 33.32770 | -79.58414 | 12603 ft | 303 kts | 215° |
| 2026-04-27 22:46 | 33.30995 | -79.59763 | 12195 ft | 301 kts | 215° |
| 2026-04-27 22:46 | 33.29234 | -79.61101 | 11805 ft | 299 kts | 215° |
| 2026-04-27 22:46 | 33.27488 | -79.62426 | 11420 ft | 296 kts | 215° |
| 2026-04-27 22:46 | 33.25753 | -79.63741 | 11035 ft | 295 kts | 215° |
| 2026-04-27 22:47 | 33.24027 | -79.65048 | 10679 ft | 292 kts | 215° |
| 2026-04-27 22:47 | 33.22322 | -79.66338 | 10280 ft | 291 kts | 215° |
| 2026-04-27 22:47 | 33.20609 | -79.67631 | 9872 ft | 291 kts | 214° |
| 2026-04-27 22:47 | 33.18877 | -79.68874 | 9460 ft | 290 kts | 213° |
| 2026-04-27 22:48 | 33.17142 | -79.70090 | 9071 ft | 288 kts | 212° |
| 2026-04-27 22:48 | 33.15351 | -79.71133 | 8664 ft | 287 kts | 198° |
| 2026-04-27 22:48 | 33.13411 | -79.71663 | 8316 ft | 285 kts | 192° |
| 2026-04-27 22:48 | 33.11464 | -79.72110 | 7961 ft | 284 kts | 192° |
| 2026-04-27 22:49 | 33.09527 | -79.72545 | 7599 ft | 283 kts | 191° |
| 2026-04-27 22:49 | 33.07595 | -79.72981 | 7238 ft | 282 kts | 191° |
| 2026-04-27 22:49 | 33.05676 | -79.73419 | 6885 ft | 280 kts | 191° |
| 2026-04-27 22:49 | 33.03766 | -79.73863 | 6527 ft | 279 kts | 191° |
| 2026-04-27 22:50 | 33.01869 | -79.74314 | 6151 ft | 277 kts | 191° |
| 2026-04-27 22:50 | 32.99982 | -79.74772 | 5778 ft | 276 kts | 191° |
| 2026-04-27 22:50 | 32.98109 | -79.75237 | 5496 ft | 272 kts | 191° |
| 2026-04-27 22:50 | 32.96273 | -79.75700 | 5254 ft | 268 kts | 191° |
| 2026-04-27 22:51 | 32.94483 | -79.76155 | 5007 ft | 265 kts | 191° |
| 2026-04-27 22:51 | 32.92689 | -79.76626 | 4754 ft | 263 kts | 195° |
| 2026-04-27 22:51 | 32.91042 | -79.77559 | 4509 ft | 263 kts | 211° |
| 2026-04-27 22:51 | 32.89488 | -79.78702 | 4253 ft | 262 kts | 212° |
| 2026-04-27 22:52 | 32.87952 | -79.79861 | 4006 ft | 261 kts | 212° |
| 2026-04-27 22:52 | 32.86422 | -79.81024 | 3755 ft | 260 kts | 213° |
| 2026-04-27 22:52 | 32.84900 | -79.82185 | 3524 ft | 260 kts | 213° |
| 2026-04-27 22:52 | 32.83375 | -79.83351 | 3283 ft | 261 kts | 212° |
| 2026-04-27 22:53 | 32.81868 | -79.84550 | 3069 ft | 260 kts | 217° |
| 2026-04-27 22:53 | 32.80474 | -79.85870 | 2930 ft | 253 kts | 219° |
| 2026-04-27 22:53 | 32.79136 | -79.87177 | 2773 ft | 245 kts | 219° |
| 2026-04-27 22:53 | 32.77842 | -79.88469 | 2640 ft | 239 kts | 225° |
| 2026-04-27 22:54 | 32.77105 | -79.90132 | 2459 ft | 223 kts | 267° |
| 2026-04-27 22:54 | 32.77291 | -79.91846 | 2396 ft | 200 kts | 290° |
| 2026-04-27 22:54 | 32.77773 | -79.93340 | 2277 ft | 189 kts | 305° |
| 2026-04-27 22:54 | 32.78465 | -79.94666 | 2227 ft | 188 kts | 314° |
| 2026-04-27 22:55 | 32.79416 | -79.95638 | 2214 ft | 173 kts | 328° |
| 2026-04-27 22:55 | 32.80349 | -79.96452 | 2176 ft | 160 kts | 331° |
| 2026-04-27 22:55 | 32.81278 | -79.97183 | 2082 ft | 161 kts | 332° |
| 2026-04-27 22:55 | 32.82186 | -79.97879 | 1906 ft | 151 kts | 333° |
| 2026-04-27 22:56 | 32.83054 | -79.98539 | 1690 ft | 146 kts | 333° |
| 2026-04-27 22:56 | 32.83877 | -79.99167 | 1515 ft | 136 kts | 333° |
| 2026-04-27 22:56 | 32.84661 | -79.99763 | 1360 ft | 134 kts | 333° |
| 2026-04-27 22:56 | 32.85447 | -80.00361 | 1132 ft | 133 kts | 332° |
| 2026-04-27 22:57 | 32.85964 | -80.00754 | 937 ft | 133 kts | 332° |
| 2026-04-27 22:57 | 32.86749 | -80.01341 | 664 ft | 133 kts | 330° |
| 2026-04-27 22:57 | 32.87529 | -80.01946 | 398 ft | 134 kts | 329° |
| 2026-04-27 22:57 | 32.88324 | -80.02557 | 231 ft | 137 kts | 328° |
| 2026-04-27 22:58 | 32.89138 | -80.03174 | 87 ft | 139 kts | 327° |
| 2026-04-27 22:58 | 32.89877 | -80.03731 | 39 ft | 100 kts | 327° |
| 2026-04-27 22:58 | 32.90208 | -80.03983 | 39 ft | 22 kts | 328° |
| 2026-04-27 22:58 | 32.90314 | -80.04062 | 40 ft | 17 kts | 327° |
| 2026-04-27 22:59 | 32.90398 | -80.04110 | 37 ft | 10 kts | 7° |
| 2026-04-27 22:59 | 32.90445 | -80.04049 | 40 ft | 10 kts | 57° |
| 2026-04-27 22:59 | 32.90482 | -80.03979 | 38 ft | 10 kts | 57° |
| 2026-04-27 22:59 | 32.90477 | -80.03910 | 40 ft | 10 kts | 136° |
| 2026-04-27 23:00 | 32.90362 | -80.03787 | 40 ft | 7 kts | 138° |
| 2026-04-27 23:00 | 32.90360 | -80.03785 | 40 ft | 0 kts | 139° |